sensor_id;sensor_type;location;lat;lon;timestamp;P1;durP1;ratioP1;P2;durP2;ratioP2
12332;SDS011;6232;48.094;11.288;2023-09-18T00:02:44;7.20;;;6.43;;
12332;SDS011;6232;48.094;11.288;2023-09-18T00:05:30;5.73;;;4.63;;
12332;SDS011;6232;48.094;11.288;2023-09-18T00:08:16;7.37;;;5.00;;
12332;SDS011;6232;48.094;11.288;2023-09-18T00:11:02;9.80;;;5.30;;
12332;SDS011;6232;48.094;11.288;2023-09-18T00:13:48;7.73;;;5.43;;
12332;SDS011;6232;48.094;11.288;2023-09-18T00:16:33;7.40;;;6.63;;
12332;SDS011;6232;48.094;11.288;2023-09-18T00:19:19;7.30;;;5.77;;
12332;SDS011;6232;48.094;11.288;2023-09-18T00:22:04;7.80;;;6.40;;
12332;SDS011;6232;48.094;11.288;2023-09-18T00:24:51;7.70;;;5.23;;
12332;SDS011;6232;48.094;11.288;2023-09-18T00:27:37;6.43;;;5.40;;
12332;SDS011;6232;48.094;11.288;2023-09-18T00:30:23;7.40;;;6.10;;
12332;SDS011;6232;48.094;11.288;2023-09-18T00:33:08;7.67;;;6.00;;
12332;SDS011;6232;48.094;11.288;2023-09-18T00:35:54;6.83;;;6.10;;
12332;SDS011;6232;48.094;11.288;2023-09-18T00:38:39;7.00;;;6.27;;
12332;SDS011;6232;48.094;11.288;2023-09-18T00:41:25;8.73;;;6.53;;
12332;SDS011;6232;48.094;11.288;2023-09-18T00:44:10;7.73;;;5.70;;
12332;SDS011;6232;48.094;11.288;2023-09-18T00:46:56;7.23;;;5.70;;
12332;SDS011;6232;48.094;11.288;2023-09-18T00:49:43;9.97;;;4.90;;
12332;SDS011;6232;48.094;11.288;2023-09-18T00:52:29;5.87;;;4.97;;
12332;SDS011;6232;48.094;11.288;2023-09-18T00:55:17;7.43;;;6.10;;
12332;SDS011;6232;48.094;11.288;2023-09-18T00:58:02;11.67;;;6.70;;
12332;SDS011;6232;48.094;11.288;2023-09-18T01:00:48;8.10;;;6.00;;
12332;SDS011;6232;48.094;11.288;2023-09-18T01:03:36;7.60;;;5.30;;
12332;SDS011;6232;48.094;11.288;2023-09-18T01:06:21;6.27;;;5.63;;
12332;SDS011;6232;48.094;11.288;2023-09-18T01:09:07;6.10;;;5.50;;
12332;SDS011;6232;48.094;11.288;2023-09-18T01:12:01;15.43;;;5.87;;
12332;SDS011;6232;48.094;11.288;2023-09-18T01:14:56;9.83;;;4.27;;
12332;SDS011;6232;48.094;11.288;2023-09-18T01:17:42;5.43;;;4.80;;
12332;SDS011;6232;48.094;11.288;2023-09-18T01:20:28;5.20;;;4.60;;
12332;SDS011;6232;48.094;11.288;2023-09-18T01:23:14;5.23;;;4.73;;
12332;SDS011;6232;48.094;11.288;2023-09-18T01:25:59;6.50;;;5.40;;
12332;SDS011;6232;48.094;11.288;2023-09-18T01:28:45;6.37;;;5.57;;
12332;SDS011;6232;48.094;11.288;2023-09-18T01:31:30;6.93;;;5.70;;
12332;SDS011;6232;48.094;11.288;2023-09-18T01:34:16;5.83;;;5.23;;
12332;SDS011;6232;48.094;11.288;2023-09-18T01:37:03;5.70;;;5.10;;
12332;SDS011;6232;48.094;11.288;2023-09-18T01:39:50;5.10;;;4.67;;
12332;SDS011;6232;48.094;11.288;2023-09-18T01:42:36;6.87;;;5.43;;
12332;SDS011;6232;48.094;11.288;2023-09-18T01:45:21;8.30;;;5.30;;
12332;SDS011;6232;48.094;11.288;2023-09-18T01:48:07;6.10;;;5.50;;
12332;SDS011;6232;48.094;11.288;2023-09-18T01:50:52;7.57;;;5.40;;
12332;SDS011;6232;48.094;11.288;2023-09-18T01:53:38;6.13;;;4.57;;
12332;SDS011;6232;48.094;11.288;2023-09-18T01:56:23;8.33;;;4.97;;
12332;SDS011;6232;48.094;11.288;2023-09-18T01:59:09;4.50;;;4.10;;
12332;SDS011;6232;48.094;11.288;2023-09-18T02:01:55;6.23;;;4.70;;
12332;SDS011;6232;48.094;11.288;2023-09-18T02:04:40;7.33;;;5.07;;
12332;SDS011;6232;48.094;11.288;2023-09-18T02:07:26;6.53;;;4.10;;
12332;SDS011;6232;48.094;11.288;2023-09-18T02:10:11;4.67;;;4.27;;
12332;SDS011;6232;48.094;11.288;2023-09-18T02:12:58;4.97;;;4.43;;
12332;SDS011;6232;48.094;11.288;2023-09-18T02:15:43;8.77;;;4.50;;
12332;SDS011;6232;48.094;11.288;2023-09-18T02:18:29;6.10;;;5.00;;
12332;SDS011;6232;48.094;11.288;2023-09-18T02:21:21;5.70;;;4.83;;
12332;SDS011;6232;48.094;11.288;2023-09-18T02:24:06;4.93;;;4.43;;
12332;SDS011;6232;48.094;11.288;2023-09-18T02:26:52;4.97;;;4.47;;
12332;SDS011;6232;48.094;11.288;2023-09-18T02:29:37;5.57;;;4.73;;
12332;SDS011;6232;48.094;11.288;2023-09-18T02:32:23;6.27;;;4.73;;
12332;SDS011;6232;48.094;11.288;2023-09-18T02:35:09;5.60;;;4.33;;
12332;SDS011;6232;48.094;11.288;2023-09-18T02:37:54;7.60;;;4.60;;
12332;SDS011;6232;48.094;11.288;2023-09-18T02:40:40;6.33;;;5.00;;
12332;SDS011;6232;48.094;11.288;2023-09-18T02:43:25;9.73;;;5.37;;
12332;SDS011;6232;48.094;11.288;2023-09-18T02:46:11;6.77;;;5.60;;
12332;SDS011;6232;48.094;11.288;2023-09-18T02:48:56;5.63;;;4.97;;
12332;SDS011;6232;48.094;11.288;2023-09-18T02:51:42;9.00;;;4.50;;
12332;SDS011;6232;48.094;11.288;2023-09-18T02:54:27;5.10;;;4.60;;
12332;SDS011;6232;48.094;11.288;2023-09-18T02:57:13;5.10;;;4.33;;
12332;SDS011;6232;48.094;11.288;2023-09-18T02:59:58;5.87;;;4.77;;
12332;SDS011;6232;48.094;11.288;2023-09-18T03:02:44;5.87;;;4.77;;
12332;SDS011;6232;48.094;11.288;2023-09-18T03:05:31;5.20;;;4.50;;
12332;SDS011;6232;48.094;11.288;2023-09-18T03:08:16;6.03;;;4.10;;
12332;SDS011;6232;48.094;11.288;2023-09-18T03:11:02;5.43;;;3.77;;
12332;SDS011;6232;48.094;11.288;2023-09-18T03:13:48;4.80;;;4.07;;
12332;SDS011;6232;48.094;11.288;2023-09-18T03:16:34;6.43;;;5.00;;
12332;SDS011;6232;48.094;11.288;2023-09-18T03:19:20;4.80;;;4.30;;
12332;SDS011;6232;48.094;11.288;2023-09-18T03:22:07;6.00;;;4.43;;
12332;SDS011;6232;48.094;11.288;2023-09-18T03:24:53;9.10;;;4.60;;
12332;SDS011;6232;48.094;11.288;2023-09-18T03:27:38;7.63;;;5.60;;
12332;SDS011;6232;48.094;11.288;2023-09-18T03:30:24;7.33;;;5.40;;
12332;SDS011;6232;48.094;11.288;2023-09-18T03:33:09;5.63;;;5.20;;
12332;SDS011;6232;48.094;11.288;2023-09-18T03:35:55;6.17;;;5.43;;
12332;SDS011;6232;48.094;11.288;2023-09-18T03:38:43;5.80;;;5.30;;
12332;SDS011;6232;48.094;11.288;2023-09-18T03:41:28;8.10;;;4.43;;
12332;SDS011;6232;48.094;11.288;2023-09-18T03:44:19;5.70;;;4.73;;
12332;SDS011;6232;48.094;11.288;2023-09-18T03:47:04;5.40;;;4.70;;
12332;SDS011;6232;48.094;11.288;2023-09-18T03:49:50;4.13;;;3.73;;
12332;SDS011;6232;48.094;11.288;2023-09-18T03:52:36;5.50;;;4.40;;
12332;SDS011;6232;48.094;11.288;2023-09-18T03:55:22;6.50;;;4.80;;
12332;SDS011;6232;48.094;11.288;2023-09-18T03:58:07;4.70;;;4.17;;
12332;SDS011;6232;48.094;11.288;2023-09-18T04:00:53;6.80;;;5.10;;
12332;SDS011;6232;48.094;11.288;2023-09-18T04:03:39;6.17;;;4.93;;
12332;SDS011;6232;48.094;11.288;2023-09-18T04:06:25;8.93;;;5.57;;
12332;SDS011;6232;48.094;11.288;2023-09-18T04:09:11;5.60;;;4.70;;
12332;SDS011;6232;48.094;11.288;2023-09-18T04:11:56;6.73;;;5.30;;
12332;SDS011;6232;48.094;11.288;2023-09-18T04:14:42;5.37;;;4.87;;
12332;SDS011;6232;48.094;11.288;2023-09-18T04:17:28;11.40;;;5.73;;
12332;SDS011;6232;48.094;11.288;2023-09-18T04:20:14;5.97;;;5.37;;
12332;SDS011;6232;48.094;11.288;2023-09-18T04:23:19;5.50;;;5.00;;
12332;SDS011;6232;48.094;11.288;2023-09-18T04:26:05;6.93;;;5.23;;
12332;SDS011;6232;48.094;11.288;2023-09-18T04:28:50;5.20;;;4.70;;
12332;SDS011;6232;48.094;11.288;2023-09-18T04:31:36;6.33;;;5.20;;
12332;SDS011;6232;48.094;11.288;2023-09-18T04:34:21;7.30;;;5.67;;
12332;SDS011;6232;48.094;11.288;2023-09-18T04:37:07;7.23;;;5.50;;
12332;SDS011;6232;48.094;11.288;2023-09-18T04:39:53;8.37;;;4.70;;
12332;SDS011;6232;48.094;11.288;2023-09-18T04:42:38;5.97;;;5.13;;
12332;SDS011;6232;48.094;11.288;2023-09-18T04:45:25;5.40;;;4.90;;
12332;SDS011;6232;48.094;11.288;2023-09-18T04:48:11;5.60;;;5.00;;
12332;SDS011;6232;48.094;11.288;2023-09-18T04:50:57;9.27;;;5.60;;
12332;SDS011;6232;48.094;11.288;2023-09-18T04:53:42;11.33;;;5.03;;
12332;SDS011;6232;48.094;11.288;2023-09-18T04:56:28;5.70;;;5.07;;
12332;SDS011;6232;48.094;11.288;2023-09-18T04:59:13;6.97;;;4.87;;
12332;SDS011;6232;48.094;11.288;2023-09-18T05:02:00;7.33;;;4.83;;
12332;SDS011;6232;48.094;11.288;2023-09-18T05:04:45;8.80;;;5.13;;
12332;SDS011;6232;48.094;11.288;2023-09-18T05:07:31;10.53;;;4.97;;
12332;SDS011;6232;48.094;11.288;2023-09-18T05:10:19;9.23;;;5.03;;
12332;SDS011;6232;48.094;11.288;2023-09-18T05:13:04;7.20;;;5.40;;
12332;SDS011;6232;48.094;11.288;2023-09-18T05:15:50;11.43;;;5.30;;
12332;SDS011;6232;48.094;11.288;2023-09-18T05:18:36;9.80;;;5.60;;
12332;SDS011;6232;48.094;11.288;2023-09-18T05:21:23;22.30;;;5.87;;
12332;SDS011;6232;48.094;11.288;2023-09-18T05:24:10;17.23;;;6.23;;
12332;SDS011;6232;48.094;11.288;2023-09-18T05:26:55;16.43;;;5.97;;
12332;SDS011;6232;48.094;11.288;2023-09-18T05:29:41;9.50;;;6.17;;
12332;SDS011;6232;48.094;11.288;2023-09-18T05:32:27;20.00;;;6.60;;
12332;SDS011;6232;48.094;11.288;2023-09-18T05:35:12;10.27;;;5.37;;
12332;SDS011;6232;48.094;11.288;2023-09-18T05:37:58;12.83;;;5.40;;
12332;SDS011;6232;48.094;11.288;2023-09-18T05:40:44;13.07;;;5.40;;
12332;SDS011;6232;48.094;11.288;2023-09-18T05:43:30;7.50;;;6.30;;
12332;SDS011;6232;48.094;11.288;2023-09-18T05:46:16;27.43;;;7.47;;
12332;SDS011;6232;48.094;11.288;2023-09-18T05:49:02;13.60;;;5.57;;
12332;SDS011;6232;48.094;11.288;2023-09-18T05:51:47;13.30;;;5.53;;
12332;SDS011;6232;48.094;11.288;2023-09-18T05:54:34;9.40;;;5.37;;
12332;SDS011;6232;48.094;11.288;2023-09-18T05:57:20;9.17;;;5.57;;
12332;SDS011;6232;48.094;11.288;2023-09-18T06:00:06;21.30;;;6.10;;
12332;SDS011;6232;48.094;11.288;2023-09-18T06:02:52;14.27;;;5.67;;
12332;SDS011;6232;48.094;11.288;2023-09-18T06:05:37;13.83;;;5.83;;
12332;SDS011;6232;48.094;11.288;2023-09-18T06:08:23;19.30;;;8.17;;
12332;SDS011;6232;48.094;11.288;2023-09-18T06:11:11;10.97;;;6.90;;
12332;SDS011;6232;48.094;11.288;2023-09-18T06:13:57;19.13;;;8.70;;
12332;SDS011;6232;48.094;11.288;2023-09-18T06:16:42;31.67;;;9.07;;
12332;SDS011;6232;48.094;11.288;2023-09-18T06:19:28;16.97;;;7.83;;
12332;SDS011;6232;48.094;11.288;2023-09-18T06:22:13;8.77;;;6.77;;
12332;SDS011;6232;48.094;11.288;2023-09-18T06:24:59;11.00;;;6.57;;
12332;SDS011;6232;48.094;11.288;2023-09-18T06:27:44;7.93;;;5.63;;
12332;SDS011;6232;48.094;11.288;2023-09-18T06:30:31;5.30;;;4.80;;
12332;SDS011;6232;48.094;11.288;2023-09-18T06:33:18;14.13;;;5.40;;
12332;SDS011;6232;48.094;11.288;2023-09-18T06:36:04;8.93;;;5.10;;
12332;SDS011;6232;48.094;11.288;2023-09-18T06:38:49;5.53;;;4.80;;
12332;SDS011;6232;48.094;11.288;2023-09-18T06:41:35;5.43;;;4.90;;
12332;SDS011;6232;48.094;11.288;2023-09-18T06:44:20;6.63;;;4.87;;
12332;SDS011;6232;48.094;11.288;2023-09-18T06:47:08;6.83;;;5.13;;
12332;SDS011;6232;48.094;11.288;2023-09-18T06:49:54;6.33;;;4.33;;
12332;SDS011;6232;48.094;11.288;2023-09-18T06:52:39;17.70;;;4.60;;
12332;SDS011;6232;48.094;11.288;2023-09-18T06:55:26;12.30;;;4.90;;
12332;SDS011;6232;48.094;11.288;2023-09-18T06:58:11;6.23;;;4.83;;
12332;SDS011;6232;48.094;11.288;2023-09-18T07:00:57;5.17;;;4.13;;
12332;SDS011;6232;48.094;11.288;2023-09-18T07:03:43;5.90;;;4.37;;
12332;SDS011;6232;48.094;11.288;2023-09-18T07:06:28;8.90;;;4.67;;
12332;SDS011;6232;48.094;11.288;2023-09-18T07:09:14;25.70;;;6.83;;
12332;SDS011;6232;48.094;11.288;2023-09-18T07:12:00;15.67;;;5.30;;
12332;SDS011;6232;48.094;11.288;2023-09-18T07:14:46;12.50;;;4.77;;
12332;SDS011;6232;48.094;11.288;2023-09-18T07:17:32;9.67;;;3.97;;
12332;SDS011;6232;48.094;11.288;2023-09-18T07:20:17;12.47;;;5.20;;
12332;SDS011;6232;48.094;11.288;2023-09-18T07:23:04;10.20;;;4.50;;
12332;SDS011;6232;48.094;11.288;2023-09-18T07:25:49;11.90;;;3.73;;
12332;SDS011;6232;48.094;11.288;2023-09-18T07:28:35;4.30;;;3.47;;
12332;SDS011;6232;48.094;11.288;2023-09-18T07:31:20;8.70;;;3.73;;
12332;SDS011;6232;48.094;11.288;2023-09-18T07:34:06;8.00;;;3.53;;
12332;SDS011;6232;48.094;11.288;2023-09-18T07:36:51;8.10;;;4.00;;
12332;SDS011;6232;48.094;11.288;2023-09-18T07:39:40;7.20;;;3.50;;
12332;SDS011;6232;48.094;11.288;2023-09-18T07:42:28;6.90;;;3.30;;
12332;SDS011;6232;48.094;11.288;2023-09-18T07:45:14;5.70;;;3.87;;
12332;SDS011;6232;48.094;11.288;2023-09-18T07:47:59;6.47;;;3.80;;
12332;SDS011;6232;48.094;11.288;2023-09-18T07:50:45;5.87;;;3.60;;
12332;SDS011;6232;48.094;11.288;2023-09-18T07:53:31;5.03;;;3.30;;
12332;SDS011;6232;48.094;11.288;2023-09-18T07:56:17;6.73;;;3.80;;
12332;SDS011;6232;48.094;11.288;2023-09-18T07:59:04;4.33;;;3.20;;
12332;SDS011;6232;48.094;11.288;2023-09-18T08:01:50;10.13;;;3.97;;
12332;SDS011;6232;48.094;11.288;2023-09-18T08:04:36;7.90;;;3.77;;
12332;SDS011;6232;48.094;11.288;2023-09-18T08:07:21;6.57;;;3.40;;
12332;SDS011;6232;48.094;11.288;2023-09-18T08:10:07;9.97;;;4.80;;
12332;SDS011;6232;48.094;11.288;2023-09-18T08:12:53;21.53;;;7.43;;
12332;SDS011;6232;48.094;11.288;2023-09-18T08:15:39;17.80;;;7.63;;
12332;SDS011;6232;48.094;11.288;2023-09-18T08:18:24;17.40;;;7.77;;
12332;SDS011;6232;48.094;11.288;2023-09-18T08:21:12;18.73;;;7.47;;
12332;SDS011;6232;48.094;11.288;2023-09-18T08:23:59;11.03;;;6.60;;
12332;SDS011;6232;48.094;11.288;2023-09-18T08:26:45;11.73;;;5.73;;
12332;SDS011;6232;48.094;11.288;2023-09-18T08:29:30;14.50;;;6.57;;
12332;SDS011;6232;48.094;11.288;2023-09-18T08:32:16;11.53;;;4.20;;
12332;SDS011;6232;48.094;11.288;2023-09-18T08:35:01;8.50;;;4.37;;
12332;SDS011;6232;48.094;11.288;2023-09-18T08:37:47;14.03;;;3.23;;
12332;SDS011;6232;48.094;11.288;2023-09-18T08:40:33;8.40;;;4.60;;
12332;SDS011;6232;48.094;11.288;2023-09-18T08:43:19;8.20;;;4.07;;
12332;SDS011;6232;48.094;11.288;2023-09-18T08:46:05;7.00;;;4.63;;
12332;SDS011;6232;48.094;11.288;2023-09-18T08:48:50;12.10;;;6.03;;
12332;SDS011;6232;48.094;11.288;2023-09-18T08:51:36;10.70;;;4.20;;
12332;SDS011;6232;48.094;11.288;2023-09-18T08:54:23;7.93;;;4.40;;
12332;SDS011;6232;48.094;11.288;2023-09-18T08:57:09;12.20;;;4.10;;
12332;SDS011;6232;48.094;11.288;2023-09-18T08:59:54;5.20;;;3.53;;
12332;SDS011;6232;48.094;11.288;2023-09-18T09:02:41;6.73;;;4.03;;
12332;SDS011;6232;48.094;11.288;2023-09-18T09:05:29;7.87;;;3.43;;
12332;SDS011;6232;48.094;11.288;2023-09-18T09:08:15;10.37;;;3.77;;
12332;SDS011;6232;48.094;11.288;2023-09-18T09:11:00;9.33;;;3.70;;
12332;SDS011;6232;48.094;11.288;2023-09-18T09:13:46;5.37;;;3.53;;
12332;SDS011;6232;48.094;11.288;2023-09-18T09:16:31;6.77;;;2.97;;
12332;SDS011;6232;48.094;11.288;2023-09-18T09:19:18;5.23;;;3.33;;
12332;SDS011;6232;48.094;11.288;2023-09-18T09:22:03;5.27;;;3.07;;
12332;SDS011;6232;48.094;11.288;2023-09-18T09:24:52;8.87;;;3.30;;
12332;SDS011;6232;48.094;11.288;2023-09-18T09:27:44;5.53;;;2.90;;
12332;SDS011;6232;48.094;11.288;2023-09-18T09:30:30;5.73;;;2.83;;
12332;SDS011;6232;48.094;11.288;2023-09-18T09:33:16;9.23;;;3.53;;
12332;SDS011;6232;48.094;11.288;2023-09-18T09:36:03;13.33;;;2.97;;
12332;SDS011;6232;48.094;11.288;2023-09-18T09:38:54;4.63;;;3.13;;
12332;SDS011;6232;48.094;11.288;2023-09-18T09:41:46;8.10;;;3.27;;
12332;SDS011;6232;48.094;11.288;2023-09-18T09:44:33;13.40;;;3.47;;
12332;SDS011;6232;48.094;11.288;2023-09-18T09:47:18;6.60;;;3.03;;
12332;SDS011;6232;48.094;11.288;2023-09-18T09:50:14;16.00;;;3.00;;
12332;SDS011;6232;48.094;11.288;2023-09-18T09:53:01;5.90;;;2.70;;
12332;SDS011;6232;48.094;11.288;2023-09-18T09:55:53;8.40;;;3.17;;
12332;SDS011;6232;48.094;11.288;2023-09-18T09:58:39;8.23;;;3.40;;
12332;SDS011;6232;48.094;11.288;2023-09-18T10:01:29;16.50;;;2.93;;
12332;SDS011;6232;48.094;11.288;2023-09-18T10:04:16;8.43;;;3.07;;
12332;SDS011;6232;48.094;11.288;2023-09-18T10:07:06;8.93;;;3.57;;
12332;SDS011;6232;48.094;11.288;2023-09-18T10:09:52;5.73;;;2.50;;
12332;SDS011;6232;48.094;11.288;2023-09-18T10:12:39;7.00;;;3.00;;
12332;SDS011;6232;48.094;11.288;2023-09-18T10:15:25;7.77;;;2.50;;
12332;SDS011;6232;48.094;11.288;2023-09-18T10:18:18;10.80;;;3.33;;
12332;SDS011;6232;48.094;11.288;2023-09-18T10:21:09;12.27;;;3.20;;
12332;SDS011;6232;48.094;11.288;2023-09-18T10:26:59;10.77;;;3.60;;
12332;SDS011;6232;48.094;11.288;2023-09-18T10:29:44;10.77;;;3.23;;
12332;SDS011;6232;48.094;11.288;2023-09-18T10:32:34;10.70;;;3.77;;
12332;SDS011;6232;48.094;11.288;2023-09-18T10:35:20;13.80;;;3.17;;
12332;SDS011;6232;48.094;11.288;2023-09-18T10:38:06;16.13;;;3.73;;
12332;SDS011;6232;48.094;11.288;2023-09-18T10:40:51;8.10;;;3.80;;
12332;SDS011;6232;48.094;11.288;2023-09-18T10:43:38;12.70;;;3.40;;
12332;SDS011;6232;48.094;11.288;2023-09-18T10:46:26;20.27;;;3.80;;
12332;SDS011;6232;48.094;11.288;2023-09-18T10:49:12;13.33;;;4.00;;
12332;SDS011;6232;48.094;11.288;2023-09-18T10:51:58;15.20;;;4.50;;
12332;SDS011;6232;48.094;11.288;2023-09-18T10:54:44;10.10;;;4.33;;
12332;SDS011;6232;48.094;11.288;2023-09-18T10:57:36;10.50;;;4.57;;
12332;SDS011;6232;48.094;11.288;2023-09-18T11:00:24;13.10;;;4.00;;
12332;SDS011;6232;48.094;11.288;2023-09-18T11:03:14;16.10;;;4.83;;
12332;SDS011;6232;48.094;11.288;2023-09-18T11:06:06;6.23;;;4.20;;
12332;SDS011;6232;48.094;11.288;2023-09-18T11:08:58;5.27;;;3.33;;
12332;SDS011;6232;48.094;11.288;2023-09-18T11:11:46;6.40;;;3.43;;
12332;SDS011;6232;48.094;11.288;2023-09-18T11:17:37;4.73;;;2.30;;
12332;SDS011;6232;48.094;11.288;2023-09-18T11:20:23;8.60;;;2.90;;
12332;SDS011;6232;48.094;11.288;2023-09-18T11:25:59;4.23;;;1.90;;
12332;SDS011;6232;48.094;11.288;2023-09-18T11:28:49;10.67;;;2.57;;
12332;SDS011;6232;48.094;11.288;2023-09-18T11:31:56;4.77;;;1.90;;
12332;SDS011;6232;48.094;11.288;2023-09-18T11:34:42;2.47;;;2.00;;
12332;SDS011;6232;48.094;11.288;2023-09-18T11:37:28;7.23;;;2.20;;
12332;SDS011;6232;48.094;11.288;2023-09-18T11:40:33;3.13;;;2.13;;
12332;SDS011;6232;48.094;11.288;2023-09-18T11:43:26;3.90;;;2.63;;
12332;SDS011;6232;48.094;11.288;2023-09-18T11:46:17;5.70;;;2.67;;
12332;SDS011;6232;48.094;11.288;2023-09-18T11:49:03;3.30;;;2.80;;
12332;SDS011;6232;48.094;11.288;2023-09-18T11:51:51;3.50;;;2.50;;
12332;SDS011;6232;48.094;11.288;2023-09-18T11:54:39;5.93;;;3.10;;
12332;SDS011;6232;48.094;11.288;2023-09-18T11:57:24;11.63;;;3.23;;
12332;SDS011;6232;48.094;11.288;2023-09-18T12:00:20;7.10;;;3.10;;
12332;SDS011;6232;48.094;11.288;2023-09-18T12:03:28;3.83;;;2.57;;
12332;SDS011;6232;48.094;11.288;2023-09-18T12:06:15;9.53;;;2.50;;
12332;SDS011;6232;48.094;11.288;2023-09-18T12:09:02;4.80;;;2.33;;
12332;SDS011;6232;48.094;11.288;2023-09-18T12:11:49;3.97;;;2.40;;
12332;SDS011;6232;48.094;11.288;2023-09-18T12:14:36;4.40;;;2.67;;
12332;SDS011;6232;48.094;11.288;2023-09-18T12:17:22;3.17;;;2.33;;
12332;SDS011;6232;48.094;11.288;2023-09-18T12:20:14;3.00;;;1.80;;
12332;SDS011;6232;48.094;11.288;2023-09-18T12:23:00;2.40;;;1.90;;
12332;SDS011;6232;48.094;11.288;2023-09-18T12:25:49;2.23;;;1.97;;
12332;SDS011;6232;48.094;11.288;2023-09-18T12:28:35;2.13;;;1.93;;
12332;SDS011;6232;48.094;11.288;2023-09-18T12:31:21;2.57;;;1.70;;
12332;SDS011;6232;48.094;11.288;2023-09-18T12:34:17;1.83;;;1.73;;
12332;SDS011;6232;48.094;11.288;2023-09-18T12:37:03;1.77;;;1.67;;
12332;SDS011;6232;48.094;11.288;2023-09-18T12:39:51;1.93;;;1.50;;
12332;SDS011;6232;48.094;11.288;2023-09-18T12:42:37;2.10;;;1.70;;
12332;SDS011;6232;48.094;11.288;2023-09-18T12:45:25;2.50;;;1.73;;
12332;SDS011;6232;48.094;11.288;2023-09-18T12:48:11;7.83;;;1.93;;
12332;SDS011;6232;48.094;11.288;2023-09-18T12:51:07;3.47;;;1.70;;
12332;SDS011;6232;48.094;11.288;2023-09-18T12:54:02;4.03;;;2.17;;
12332;SDS011;6232;48.094;11.288;2023-09-18T12:56:51;5.03;;;2.30;;
12332;SDS011;6232;48.094;11.288;2023-09-18T12:59:37;4.70;;;2.30;;
12332;SDS011;6232;48.094;11.288;2023-09-18T13:02:23;8.10;;;3.30;;
12332;SDS011;6232;48.094;11.288;2023-09-18T13:05:08;2.67;;;2.00;;
12332;SDS011;6232;48.094;11.288;2023-09-18T13:07:55;2.20;;;2.00;;
12332;SDS011;6232;48.094;11.288;2023-09-18T13:10:44;3.00;;;2.50;;
12332;SDS011;6232;48.094;11.288;2023-09-18T13:13:30;3.23;;;1.90;;
12332;SDS011;6232;48.094;11.288;2023-09-18T13:16:18;2.13;;;1.90;;
12332;SDS011;6232;48.094;11.288;2023-09-18T13:19:07;2.03;;;1.60;;
12332;SDS011;6232;48.094;11.288;2023-09-18T13:21:53;5.00;;;1.93;;
12332;SDS011;6232;48.094;11.288;2023-09-18T13:24:38;6.00;;;2.20;;
12332;SDS011;6232;48.094;11.288;2023-09-18T13:27:24;4.80;;;1.80;;
12332;SDS011;6232;48.094;11.288;2023-09-18T13:30:10;3.03;;;1.50;;
12332;SDS011;6232;48.094;11.288;2023-09-18T13:33:02;1.77;;;1.60;;
12332;SDS011;6232;48.094;11.288;2023-09-18T13:35:49;3.93;;;2.00;;
12332;SDS011;6232;48.094;11.288;2023-09-18T13:38:35;3.90;;;1.60;;
12332;SDS011;6232;48.094;11.288;2023-09-18T13:41:20;4.13;;;2.10;;
12332;SDS011;6232;48.094;11.288;2023-09-18T13:44:08;1.90;;;1.80;;
12332;SDS011;6232;48.094;11.288;2023-09-18T13:46:55;6.07;;;2.17;;
12332;SDS011;6232;48.094;11.288;2023-09-18T13:49:40;2.60;;;1.90;;
12332;SDS011;6232;48.094;11.288;2023-09-18T13:52:26;2.60;;;1.97;;
12332;SDS011;6232;48.094;11.288;2023-09-18T13:55:12;5.83;;;1.97;;
12332;SDS011;6232;48.094;11.288;2023-09-18T13:57:58;2.20;;;1.70;;
12332;SDS011;6232;48.094;11.288;2023-09-18T14:00:43;4.43;;;1.50;;
12332;SDS011;6232;48.094;11.288;2023-09-18T14:03:29;3.50;;;1.83;;
12332;SDS011;6232;48.094;11.288;2023-09-18T14:06:17;1.40;;;1.30;;
12332;SDS011;6232;48.094;11.288;2023-09-18T14:09:02;1.50;;;1.40;;
12332;SDS011;6232;48.094;11.288;2023-09-18T14:11:51;2.30;;;1.40;;
12332;SDS011;6232;48.094;11.288;2023-09-18T14:14:36;3.07;;;2.20;;
12332;SDS011;6232;48.094;11.288;2023-09-18T14:17:22;4.17;;;1.57;;
12332;SDS011;6232;48.094;11.288;2023-09-18T14:20:08;1.97;;;1.83;;
12332;SDS011;6232;48.094;11.288;2023-09-18T14:22:54;1.97;;;1.87;;
12332;SDS011;6232;48.094;11.288;2023-09-18T14:25:40;3.27;;;1.60;;
12332;SDS011;6232;48.094;11.288;2023-09-18T14:28:26;3.00;;;1.50;;
12332;SDS011;6232;48.094;11.288;2023-09-18T14:31:13;4.60;;;1.63;;
12332;SDS011;6232;48.094;11.288;2023-09-18T14:33:58;3.13;;;1.60;;
12332;SDS011;6232;48.094;11.288;2023-09-18T14:36:45;2.67;;;1.77;;
12332;SDS011;6232;48.094;11.288;2023-09-18T14:39:31;4.50;;;1.40;;
12332;SDS011;6232;48.094;11.288;2023-09-18T14:42:17;4.00;;;1.60;;
12332;SDS011;6232;48.094;11.288;2023-09-18T14:45:04;1.33;;;1.23;;
12332;SDS011;6232;48.094;11.288;2023-09-18T14:47:50;14.00;;;1.63;;
12332;SDS011;6232;48.094;11.288;2023-09-18T14:50:35;3.63;;;1.30;;
12332;SDS011;6232;48.094;11.288;2023-09-18T14:53:21;1.63;;;1.47;;
12332;SDS011;6232;48.094;11.288;2023-09-18T14:56:07;3.87;;;1.43;;
12332;SDS011;6232;48.094;11.288;2023-09-18T14:58:53;1.60;;;1.30;;
12332;SDS011;6232;48.094;11.288;2023-09-18T15:01:40;3.67;;;2.47;;
12332;SDS011;6232;48.094;11.288;2023-09-18T15:04:28;3.50;;;1.77;;
12332;SDS011;6232;48.094;11.288;2023-09-18T15:07:13;1.63;;;1.50;;
12332;SDS011;6232;48.094;11.288;2023-09-18T15:09:59;1.30;;;1.20;;
12332;SDS011;6232;48.094;11.288;2023-09-18T15:12:45;9.57;;;1.50;;
12332;SDS011;6232;48.094;11.288;2023-09-18T15:15:30;1.77;;;1.33;;
12332;SDS011;6232;48.094;11.288;2023-09-18T15:18:16;1.30;;;1.17;;
12332;SDS011;6232;48.094;11.288;2023-09-18T15:21:02;1.40;;;1.30;;
12332;SDS011;6232;48.094;11.288;2023-09-18T15:23:48;1.70;;;1.30;;
12332;SDS011;6232;48.094;11.288;2023-09-18T15:26:35;1.43;;;1.33;;
12332;SDS011;6232;48.094;11.288;2023-09-18T15:29:21;4.33;;;1.63;;
12332;SDS011;6232;48.094;11.288;2023-09-18T15:32:07;4.07;;;1.30;;
12332;SDS011;6232;48.094;11.288;2023-09-18T15:34:53;1.80;;;1.30;;
12332;SDS011;6232;48.094;11.288;2023-09-18T15:37:39;3.40;;;1.40;;
12332;SDS011;6232;48.094;11.288;2023-09-18T15:40:25;2.03;;;1.30;;
12332;SDS011;6232;48.094;11.288;2023-09-18T15:43:11;1.70;;;1.33;;
12332;SDS011;6232;48.094;11.288;2023-09-18T15:45:57;1.20;;;1.10;;
12332;SDS011;6232;48.094;11.288;2023-09-18T15:48:44;3.17;;;1.10;;
12332;SDS011;6232;48.094;11.288;2023-09-18T15:51:30;1.60;;;1.20;;
12332;SDS011;6232;48.094;11.288;2023-09-18T15:54:16;4.30;;;1.83;;
12332;SDS011;6232;48.094;11.288;2023-09-18T15:57:02;3.83;;;1.10;;
12332;SDS011;6232;48.094;11.288;2023-09-18T15:59:48;3.53;;;1.57;;
12332;SDS011;6232;48.094;11.288;2023-09-18T16:02:33;2.60;;;1.50;;
12332;SDS011;6232;48.094;11.288;2023-09-18T16:05:19;1.23;;;1.13;;
12332;SDS011;6232;48.094;11.288;2023-09-18T16:08:10;1.80;;;1.30;;
12332;SDS011;6232;48.094;11.288;2023-09-18T16:10:57;3.73;;;1.67;;
12332;SDS011;6232;48.094;11.288;2023-09-18T16:13:42;1.47;;;1.23;;
12332;SDS011;6232;48.094;11.288;2023-09-18T16:16:28;2.60;;;1.20;;
12332;SDS011;6232;48.094;11.288;2023-09-18T16:19:14;1.20;;;0.97;;
12332;SDS011;6232;48.094;11.288;2023-09-18T16:22:00;1.57;;;1.00;;
12332;SDS011;6232;48.094;11.288;2023-09-18T16:24:46;1.20;;;1.10;;
12332;SDS011;6232;48.094;11.288;2023-09-18T16:27:31;3.97;;;1.20;;
12332;SDS011;6232;48.094;11.288;2023-09-18T16:30:17;1.30;;;1.20;;
12332;SDS011;6232;48.094;11.288;2023-09-18T16:33:03;4.50;;;4.10;;
12332;SDS011;6232;48.094;11.288;2023-09-18T16:35:48;4.37;;;3.90;;
12332;SDS011;6232;48.094;11.288;2023-09-18T16:38:34;2.33;;;2.13;;
12332;SDS011;6232;48.094;11.288;2023-09-18T16:41:27;1.40;;;1.30;;
12332;SDS011;6232;48.094;11.288;2023-09-18T16:44:12;1.53;;;1.30;;
12332;SDS011;6232;48.094;11.288;2023-09-18T16:46:58;2.10;;;1.47;;
12332;SDS011;6232;48.094;11.288;2023-09-18T16:49:44;1.47;;;1.37;;
12332;SDS011;6232;48.094;11.288;2023-09-18T16:52:32;2.17;;;1.40;;